sensor_id;sensor_type;location;lat;lon;timestamp;pressure;altitude;pressure_sealevel;temperature;humidity
73692;BME280;61996;49.910;35.562;2023-05-02T06:57:31;100275.16;;;18.82;40.05
73692;BME280;61996;49.910;35.562;2023-05-02T07:00:34;100282.81;;;18.86;40.17
73692;BME280;61996;49.910;35.562;2023-05-02T07:03:37;100286.06;;;18.90;40.05
73692;BME280;61996;49.910;35.562;2023-05-02T07:06:40;100286.41;;;18.97;39.96
73692;BME280;61996;49.910;35.562;2023-05-02T07:09:43;100286.53;;;18.95;39.98
73692;BME280;61996;49.910;35.562;2023-05-02T07:12:47;100296.72;;;19.01;39.86
73692;BME280;61996;49.910;35.562;2023-05-02T07:15:50;100290.91;;;18.96;40.03
73692;BME280;61996;49.910;35.562;2023-05-02T07:18:53;100291.97;;;19.05;39.77
73692;BME280;61996;49.910;35.562;2023-05-02T07:21:55;100298.75;;;19.09;39.81
73692;BME280;61996;49.910;35.562;2023-05-02T07:24:59;100295.59;;;19.04;39.71
73692;BME280;61996;49.910;35.562;2023-05-02T07:28:04;100291.38;;;19.12;39.80
73692;BME280;61996;49.910;35.562;2023-05-02T07:31:07;100294.88;;;19.13;39.79
73692;BME280;61996;49.910;35.562;2023-05-02T07:34:09;100298.13;;;19.16;39.78
73692;BME280;61996;49.910;35.562;2023-05-02T07:37:12;100303.22;;;19.20;39.42
73692;BME280;61996;49.910;35.562;2023-05-02T07:40:15;100301.06;;;19.13;39.51
73692;BME280;61996;49.910;35.562;2023-05-02T07:43:20;100296.91;;;19.21;39.50
73692;BME280;61996;49.910;35.562;2023-05-02T07:46:23;100296.78;;;19.22;39.43
73692;BME280;61996;49.910;35.562;2023-05-02T07:49:26;100303.44;;;19.28;39.52
73692;BME280;61996;49.910;35.562;2023-05-02T07:52:29;100299.31;;;19.24;39.44
73692;BME280;61996;49.910;35.562;2023-05-02T07:55:31;100299.19;;;19.25;39.01
73692;BME280;61996;49.910;35.562;2023-05-02T07:58:36;100302.34;;;19.30;39.37
73692;BME280;61996;49.910;35.562;2023-05-02T08:01:39;100299.81;;;19.29;39.54
73692;BME280;61996;49.910;35.562;2023-05-02T08:04:41;100301.75;;;19.27;39.42
73692;BME280;61996;49.910;35.562;2023-05-02T08:07:44;100293.00;;;19.36;39.01
73692;BME280;61996;49.910;35.562;2023-05-02T08:10:48;100294.47;;;19.29;38.72
73692;BME280;61996;49.910;35.562;2023-05-02T08:13:53;100290.81;;;19.30;38.64
73692;BME280;61996;49.910;35.562;2023-05-02T08:16:56;100295.78;;;19.34;38.41
73692;BME280;61996;49.910;35.562;2023-05-02T08:19:59;100294.59;;;19.27;38.44
73692;BME280;61996;49.910;35.562;2023-05-02T08:23:02;100295.66;;;19.36;38.55
73692;BME280;61996;49.910;35.562;2023-05-02T08:26:05;100295.66;;;19.36;38.40
73692;BME280;61996;49.910;35.562;2023-05-02T08:29:09;100293.50;;;19.30;38.10
73692;BME280;61996;49.910;35.562;2023-05-02T08:32:13;100292.16;;;19.35;38.26
73692;BME280;61996;49.910;35.562;2023-05-02T08:35:16;100291.88;;;19.38;38.48
73692;BME280;61996;49.910;35.562;2023-05-02T08:38:18;100295.41;;;19.39;38.10
73692;BME280;61996;49.910;35.562;2023-05-02T08:41:21;100285.72;;;19.38;38.11
73692;BME280;61996;49.910;35.562;2023-05-02T08:44:25;100289.56;;;19.45;38.54
73692;BME280;61996;49.910;35.562;2023-05-02T08:47:28;100300.38;;;19.43;38.20
73692;BME280;61996;49.910;35.562;2023-05-02T08:50:34;100290.53;;;19.44;38.03
73692;BME280;61996;49.910;35.562;2023-05-02T08:53:38;100287.88;;;19.44;38.23
73692;BME280;61996;49.910;35.562;2023-05-02T08:56:41;100286.75;;;19.47;37.97
73692;BME280;61996;49.910;35.562;2023-05-02T08:59:45;100280.34;;;19.49;37.89
73692;BME280;61996;49.910;35.562;2023-05-02T09:02:50;100286.84;;;19.56;37.71
73692;BME280;61996;49.910;35.562;2023-05-02T09:06:02;100277.78;;;19.59;37.41
73692;BME280;61996;49.910;35.562;2023-05-02T09:09:05;100292.69;;;19.61;37.75
73692;BME280;61996;49.910;35.562;2023-05-02T09:12:08;100288.78;;;19.65;37.39
73692;BME280;61996;49.910;35.562;2023-05-02T09:15:13;100289.06;;;19.62;37.92
73692;BME280;61996;49.910;35.562;2023-05-02T09:18:20;100280.78;;;19.65;37.81
73692;BME280;61996;49.910;35.562;2023-05-02T09:21:24;100284.28;;;19.66;37.10
73692;BME280;61996;49.910;35.562;2023-05-02T09:24:27;100273.63;;;19.66;37.12
73692;BME280;61996;49.910;35.562;2023-05-02T09:27:33;100272.53;;;19.68;36.87
73692;BME280;61996;49.910;35.562;2023-05-02T09:30:51;100273.94;;;19.73;37.02
73692;BME280;61996;49.910;35.562;2023-05-02T09:34:08;100268.88;;;19.69;37.14
73692;BME280;61996;49.910;35.562;2023-05-02T09:37:11;100268.63;;;19.73;37.13
73692;BME280;61996;49.910;35.562;2023-05-02T09:40:34;100272.13;;;19.73;37.04
73692;BME280;61996;49.910;35.562;2023-05-02T09:43:37;100263.28;;;19.73;36.55
73692;BME280;61996;49.910;35.562;2023-05-02T09:46:42;100272.00;;;19.75;37.65
73692;BME280;61996;49.910;35.562;2023-05-02T09:49:45;100271.16;;;19.74;37.36
73692;BME280;61996;49.910;35.562;2023-05-02T09:52:59;100274.66;;;19.75;38.39
73692;BME280;61996;49.910;35.562;2023-05-02T09:56:02;100273.56;;;19.77;37.55
73692;BME280;61996;49.910;35.562;2023-05-02T09:59:12;100279.47;;;19.81;38.30
73692;BME280;61996;49.910;35.562;2023-05-02T10:02:16;100275.84;;;19.82;38.05
73692;BME280;61996;49.910;35.562;2023-05-02T10:05:19;100272.78;;;19.86;36.59
73692;BME280;61996;49.910;35.562;2023-05-02T10:08:24;100277.88;;;19.89;36.32
73692;BME280;61996;49.910;35.562;2023-05-02T10:11:27;100278.00;;;19.88;37.14
73692;BME280;61996;49.910;35.562;2023-05-02T10:14:33;100273.78;;;19.85;38.72
73692;BME280;61996;49.910;35.562;2023-05-02T10:17:39;100272.53;;;19.89;38.20
73692;BME280;61996;49.910;35.562;2023-05-02T10:20:46;100273.13;;;19.93;38.17
73692;BME280;61996;49.910;35.562;2023-05-02T10:23:51;100273.81;;;19.95;36.35
73692;BME280;61996;49.910;35.562;2023-05-02T10:26:54;100276.06;;;19.90;38.33
73692;BME280;61996;49.910;35.562;2023-05-02T10:29:57;100276.06;;;19.90;38.60
73692;BME280;61996;49.910;35.562;2023-05-02T10:33:03;100283.22;;;19.89;38.61
73692;BME280;61996;49.910;35.562;2023-05-02T10:36:07;100288.00;;;19.95;38.66
73692;BME280;61996;49.910;35.562;2023-05-02T10:39:10;100274.56;;;19.97;38.66
73692;BME280;61996;49.910;35.562;2023-05-02T10:42:13;100271.88;;;19.97;38.58
73692;BME280;61996;49.910;35.562;2023-05-02T10:45:30;100279.91;;;19.97;38.70
73692;BME280;61996;49.910;35.562;2023-05-02T10:48:35;100276.94;;;20.00;38.63
73692;BME280;61996;49.910;35.562;2023-05-02T10:51:39;100282.16;;;20.02;38.67
73692;BME280;61996;49.910;35.562;2023-05-02T10:54:42;100276.94;;;20.00;38.89
73692;BME280;61996;49.910;35.562;2023-05-02T11:07:51;100285.44;;;20.05;38.87
73692;BME280;61996;49.910;35.562;2023-05-02T11:14:42;100273.38;;;20.11;38.65
73692;BME280;61996;49.910;35.562;2023-05-02T11:17:57;100266.34;;;20.10;38.76
73692;BME280;61996;49.910;35.562;2023-05-02T11:24:37;100273.88;;;20.25;38.58
73692;BME280;61996;49.910;35.562;2023-05-02T11:27:40;100270.47;;;20.23;39.31
73692;BME280;61996;49.910;35.562;2023-05-02T11:30:45;100269.91;;;20.20;39.57
73692;BME280;61996;49.910;35.562;2023-05-02T11:33:54;100262.59;;;20.22;39.30
73692;BME280;61996;49.910;35.562;2023-05-02T11:36:57;100253.75;;;20.21;39.59
73692;BME280;61996;49.910;35.562;2023-05-02T11:40:10;100251.78;;;20.23;39.59
73692;BME280;61996;49.910;35.562;2023-05-02T11:43:13;100257.72;;;20.27;39.25
73692;BME280;61996;49.910;35.562;2023-05-02T11:46:16;100252.38;;;20.27;39.22
73692;BME280;61996;49.910;35.562;2023-05-02T11:49:21;100253.06;;;20.29;39.29
73692;BME280;61996;49.910;35.562;2023-05-02T11:52:24;100252.25;;;20.29;39.07
73692;BME280;61996;49.910;35.562;2023-05-02T11:55:28;100257.34;;;20.32;39.06
73692;BME280;61996;49.910;35.562;2023-05-02T11:58:31;100254.78;;;20.30;39.05
73692;BME280;61996;49.910;35.562;2023-05-02T12:01:35;100264.34;;;20.33;38.93
73692;BME280;61996;49.910;35.562;2023-05-02T12:04:41;100256.53;;;20.41;38.81
73692;BME280;61996;49.910;35.562;2023-05-02T12:07:44;100252.66;;;20.45;38.62
73692;BME280;61996;49.910;35.562;2023-05-02T12:10:49;100250.19;;;20.42;38.97
73692;BME280;61996;49.910;35.562;2023-05-02T12:13:52;100250.69;;;20.47;38.25
73692;BME280;61996;49.910;35.562;2023-05-02T12:16:56;100246.31;;;20.46;38.86
73692;BME280;61996;49.910;35.562;2023-05-02T12:19:59;100244.63;;;20.45;38.87
73692;BME280;61996;49.910;35.562;2023-05-02T12:23:04;100247.31;;;20.45;39.28
73692;BME280;61996;49.910;35.562;2023-05-02T12:26:19;100248.22;;;20.44;38.59
73692;BME280;61996;49.910;35.562;2023-05-02T12:29:35;100241.53;;;20.49;38.72
73692;BME280;61996;49.910;35.562;2023-05-02T12:32:38;100237.78;;;20.52;38.45
73692;BME280;61996;49.910;35.562;2023-05-02T12:35:45;100234.13;;;20.53;38.48
73692;BME280;61996;49.910;35.562;2023-05-02T12:38:49;100235.78;;;20.54;38.46
73692;BME280;61996;49.910;35.562;2023-05-02T12:41:56;100231.84;;;20.58;38.16
73692;BME280;61996;49.910;35.562;2023-05-02T12:44:59;100241.44;;;20.61;38.45
73692;BME280;61996;49.910;35.562;2023-05-02T12:48:02;100242.16;;;20.63;38.39
73692;BME280;61996;49.910;35.562;2023-05-02T12:51:22;100241.16;;;20.64;37.95
73692;BME280;61996;49.910;35.562;2023-05-02T12:54:25;100233.88;;;20.66;38.10
73692;BME280;61996;49.910;35.562;2023-05-02T12:57:29;100240.78;;;20.68;37.90
73692;BME280;61996;49.910;35.562;2023-05-02T13:00:32;100233.72;;;20.67;38.11
73692;BME280;61996;49.910;35.562;2023-05-02T13:03:36;100243.75;;;20.75;37.67
73692;BME280;61996;49.910;35.562;2023-05-02T13:06:39;100237.69;;;20.73;37.95
73692;BME280;61996;49.910;35.562;2023-05-02T13:09:43;100234.59;;;20.77;38.11
73692;BME280;61996;49.910;35.562;2023-05-02T13:12:47;100233.59;;;20.78;37.86
73692;BME280;61996;49.910;35.562;2023-05-02T13:15:50;100231.38;;;20.84;37.96
73692;BME280;61996;49.910;35.562;2023-05-02T13:18:53;100219.69;;;20.75;32.33
73692;BME280;61996;49.910;35.562;2023-05-02T13:21:56;100233.91;;;20.75;35.69
73692;BME280;61996;49.910;35.562;2023-05-02T13:24:58;100234.56;;;20.68;32.47
73692;BME280;61996;49.910;35.562;2023-05-02T13:28:02;100227.72;;;20.75;32.44
73692;BME280;61996;49.910;35.562;2023-05-02T13:31:07;100226.41;;;20.69;33.66
73692;BME280;61996;49.910;35.562;2023-05-02T13:34:09;100229.63;;;20.63;32.43
73692;BME280;61996;49.910;35.562;2023-05-02T13:37:12;100232.34;;;20.73;31.64
73692;BME280;61996;49.910;35.562;2023-05-02T13:40:15;100225.16;;;20.73;32.84
73692;BME280;61996;49.910;35.562;2023-05-02T13:43:21;100238.91;;;20.59;32.24
73692;BME280;61996;49.910;35.562;2023-05-02T13:46:24;100242.00;;;20.64;32.02
73692;BME280;61996;49.910;35.562;2023-05-02T13:49:27;100246.81;;;20.70;32.55
73692;BME280;61996;49.910;35.562;2023-05-02T13:52:30;100244.88;;;20.72;32.01
73692;BME280;61996;49.910;35.562;2023-05-02T13:55:33;100245.81;;;20.62;31.20
73692;BME280;61996;49.910;35.562;2023-05-02T13:58:37;100241.44;;;20.61;31.97
73692;BME280;61996;49.910;35.562;2023-05-02T14:01:40;100236.63;;;20.55;34.08
73692;BME280;61996;49.910;35.562;2023-05-02T14:04:43;100242.13;;;20.53;31.91
73692;BME280;61996;49.910;35.562;2023-05-02T14:07:45;100246.69;;;20.41;30.72
73692;BME280;61996;49.910;35.562;2023-05-02T14:10:48;100242.16;;;20.32;31.40
73692;BME280;61996;49.910;35.562;2023-05-02T14:13:52;100240.59;;;20.60;31.50
73692;BME280;61996;49.910;35.562;2023-05-02T14:16:57;100231.53;;;20.92;35.28
73692;BME280;61996;49.910;35.562;2023-05-02T14:20:02;100231.66;;;20.90;37.44
73692;BME280;61996;49.910;35.562;2023-05-02T14:23:06;100227.47;;;20.97;37.10
73692;BME280;61996;49.910;35.562;2023-05-02T14:26:09;100223.66;;;21.00;37.23
73692;BME280;61996;49.910;35.562;2023-05-02T14:29:13;100227.47;;;20.97;38.32
73692;BME280;61996;49.910;35.562;2023-05-02T14:32:16;100217.47;;;20.99;37.34
73692;BME280;61996;49.910;35.562;2023-05-02T14:35:19;100226.66;;;21.16;36.60
73692;BME280;61996;49.910;35.562;2023-05-02T14:38:21;100220.16;;;21.09;36.96
73692;BME280;61996;49.910;35.562;2023-05-02T14:41:24;100219.59;;;21.05;37.04
73692;BME280;61996;49.910;35.562;2023-05-02T14:44:29;100225.53;;;21.09;38.09
73692;BME280;61996;49.910;35.562;2023-05-02T14:47:32;100222.56;;;21.12;36.90
73692;BME280;61996;49.910;35.562;2023-05-02T14:50:35;100230.31;;;21.25;37.57
73692;BME280;61996;49.910;35.562;2023-05-02T14:53:40;100231.84;;;21.18;37.78
73692;BME280;61996;49.910;35.562;2023-05-02T14:56:43;100227.19;;;21.20;37.44
73692;BME280;61996;49.910;35.562;2023-05-02T14:59:47;100231.72;;;21.19;37.88
73692;BME280;61996;49.910;35.562;2023-05-02T15:02:50;100233.28;;;21.22;37.63
73692;BME280;61996;49.910;35.562;2023-05-02T15:05:53;100228.78;;;21.22;37.72
73692;BME280;61996;49.910;35.562;2023-05-02T15:08:56;100229.47;;;21.24;37.42
73692;BME280;61996;49.910;35.562;2023-05-02T15:11:58;100229.31;;;21.26;37.56
73692;BME280;61996;49.910;35.562;2023-05-02T15:15:05;100227.50;;;21.26;37.39
73692;BME280;61996;49.910;35.562;2023-05-02T15:18:09;100232.59;;;21.29;37.28
73692;BME280;61996;49.910;35.562;2023-05-02T15:21:12;100228.09;;;21.30;37.18
73692;BME280;61996;49.910;35.562;2023-05-02T15:24:15;100236.34;;;21.27;37.83
73692;BME280;61996;49.910;35.562;2023-05-02T15:27:18;100230.34;;;21.34;36.93
73692;BME280;61996;49.910;35.562;2023-05-02T15:30:22;100229.78;;;21.41;35.69
73692;BME280;61996;49.910;35.562;2023-05-02T15:33:25;100229.66;;;21.42;35.39
73692;BME280;61996;49.910;35.562;2023-05-02T15:36:27;100232.44;;;21.41;35.88
73692;BME280;61996;49.910;35.562;2023-05-02T15:39:31;100230.63;;;21.41;34.94
73692;BME280;61996;49.910;35.562;2023-05-02T15:42:34;100233.28;;;21.41;34.47
73692;BME280;61996;49.910;35.562;2023-05-02T15:45:39;100235.28;;;21.39;34.62
73692;BME280;61996;49.910;35.562;2023-05-02T15:48:42;100232.44;;;21.41;34.42
73692;BME280;61996;49.910;35.562;2023-05-02T15:51:45;100235.41;;;21.38;34.35
73692;BME280;61996;49.910;35.562;2023-05-02T15:54:48;100234.44;;;21.39;34.34
73692;BME280;61996;49.910;35.562;2023-05-02T15:57:52;100239.34;;;21.33;34.88
73692;BME280;61996;49.910;35.562;2023-05-02T16:00:56;100243.84;;;21.33;34.69
73692;BME280;61996;49.910;35.562;2023-05-02T16:03:59;100242.47;;;21.29;34.91
73692;BME280;61996;49.910;35.562;2023-05-02T16:07:02;100245.97;;;21.29;34.81
73692;BME280;61996;49.910;35.562;2023-05-02T16:10:05;100252.31;;;21.28;34.72
73692;BME280;61996;49.910;35.562;2023-05-02T16:13:08;100249.03;;;21.25;35.00
73692;BME280;61996;49.910;35.562;2023-05-02T16:16:12;100250.41;;;21.00;36.49
73692;BME280;61996;49.910;35.562;2023-05-02T16:19:15;100257.63;;;21.09;35.54
73692;BME280;61996;49.910;35.562;2023-05-02T16:22:18;100261.53;;;21.05;35.68
73692;BME280;61996;49.910;35.562;2023-05-02T16:25:21;100251.28;;;21.10;35.56
73692;BME280;61996;49.910;35.562;2023-05-02T16:28:23;100264.78;;;21.08;35.56
73692;BME280;61996;49.910;35.562;2023-05-02T16:31:28;100265.06;;;21.05;35.58
73692;BME280;61996;49.910;35.562;2023-05-02T16:34:31;100261.69;;;21.03;35.87
73692;BME280;61996;49.910;35.562;2023-05-02T16:37:34;100262.91;;;20.99;36.11
73692;BME280;61996;49.910;35.562;2023-05-02T16:40:37;100264.75;;;20.99;36.94
73692;BME280;61996;49.910;35.562;2023-05-02T16:43:39;100265.03;;;20.96;37.30
73692;BME280;61996;49.910;35.562;2023-05-02T16:46:43;100264.06;;;20.97;37.13
73692;BME280;61996;49.910;35.562;2023-05-02T16:49:51;100271.38;;;20.95;37.05
73692;BME280;61996;49.910;35.562;2023-05-02T16:52:53;100272.16;;;20.86;37.12
73692;BME280;61996;49.910;35.562;2023-05-02T16:55:56;100276.81;;;20.84;37.42
73692;BME280;61996;49.910;35.562;2023-05-02T16:59:00;100282.63;;;20.89;37.31
73692;BME280;61996;49.910;35.562;2023-05-02T17:02:04;100275.84;;;20.85;37.68
73692;BME280;61996;49.910;35.562;2023-05-02T17:05:08;100279.78;;;20.80;37.83
73692;BME280;61996;49.910;35.562;2023-05-02T17:08:11;100285.13;;;20.80;37.90
73692;BME280;61996;49.910;35.562;2023-05-02T17:11:14;100287.34;;;20.75;38.07
73692;BME280;61996;49.910;35.562;2023-05-02T17:14:17;100285.38;;;20.77;38.06
73692;BME280;61996;49.910;35.562;2023-05-02T17:17:22;100291.47;;;20.79;38.15
73692;BME280;61996;49.910;35.562;2023-05-02T17:20:24;100287.06;;;20.78;38.02
73692;BME280;61996;49.910;35.562;2023-05-02T17:23:27;100291.16;;;20.73;38.05
73692;BME280;61996;49.910;35.562;2023-05-02T17:26:30;100293.69;;;20.74;38.00
73692;BME280;61996;49.910;35.562;2023-05-02T17:29:33;100298.72;;;20.68;38.40
73692;BME280;61996;49.910;35.562;2023-05-02T17:32:37;100299.56;;;20.68;38.43
73692;BME280;61996;49.910;35.562;2023-05-02T17:35:40;100300.41;;;20.69;38.18
73692;BME280;61996;49.910;35.562;2023-05-02T17:38:43;100298.03;;;20.66;38.30
73692;BME280;61996;49.910;35.562;2023-05-02T17:41:46;100298.19;;;20.74;38.42
73692;BME280;61996;49.910;35.562;2023-05-02T17:44:50;100310.66;;;20.64;38.22
73692;BME280;61996;49.910;35.562;2023-05-02T17:47:54;100308.50;;;20.58;38.27
73692;BME280;61996;49.910;35.562;2023-05-02T17:50:59;100309.78;;;20.53;38.29
73692;BME280;61996;49.910;35.562;2023-05-02T17:54:02;100305.53;;;20.51;38.52
73692;BME280;61996;49.910;35.562;2023-05-02T17:57:05;100302.75;;;20.52;38.42
73692;BME280;61996;49.910;35.562;2023-05-02T18:00:08;100310.66;;;20.43;38.62
73692;BME280;61996;49.910;35.562;2023-05-02T18:03:12;100313.81;;;20.48;38.80
73692;BME280;61996;49.910;35.562;2023-05-02T18:06:15;100311.63;;;20.42;38.63
73692;BME280;61996;49.910;35.562;2023-05-02T18:09:19;100316.97;;;20.42;38.74
73692;BME280;61996;49.910;35.562;2023-05-02T18:12:21;100311.06;;;20.38;38.83
73692;BME280;61996;49.910;35.562;2023-05-02T18:15:24;100314.69;;;20.37;38.75
73692;BME280;61996;49.910;35.562;2023-05-02T18:18:29;100311.91;;;20.39;38.74
73692;BME280;61996;49.910;35.562;2023-05-02T18:21:33;100303.84;;;20.50;38.66
73692;BME280;61996;49.910;35.562;2023-05-02T18:24:38;100303.06;;;20.38;38.82
73692;BME280;61996;49.910;35.562;2023-05-02T18:27:41;100300.25;;;20.40;39.04
73692;BME280;61996;49.910;35.562;2023-05-02T18:30:44;100306.56;;;20.39;39.11
73692;BME280;61996;49.910;35.562;2023-05-02T18:33:48;100298.81;;;20.36;39.02
73692;BME280;61996;49.910;35.562;2023-05-02T18:36:51;100305.28;;;20.33;39.00
73692;BME280;61996;49.910;35.562;2023-05-02T18:39:54;100307.94;;;20.33;38.84
73692;BME280;61996;49.910;35.562;2023-05-02T18:42:57;100307.25;;;20.31;38.72
73692;BME280;61996;49.910;35.562;2023-05-02T18:46:00;100314.13;;;20.34;38.83
73692;BME280;61996;49.910;35.562;2023-05-02T18:49:04;100303.72;;;20.31;38.87
73692;BME280;61996;49.910;35.562;2023-05-02T18:52:09;100306.81;;;20.36;38.69
73692;BME280;61996;49.910;35.562;2023-05-02T18:55:12;100304.56;;;20.31;38.82
73692;BME280;61996;49.910;35.562;2023-05-02T18:58:15;100304.56;;;20.31;38.92
73692;BME280;61996;49.910;35.562;2023-05-02T19:01:18;100308.78;;;20.34;38.64
73692;BME280;61996;49.910;35.562;2023-05-02T19:04:23;100307.34;;;20.30;38.73
73692;BME280;61996;49.910;35.562;2023-05-02T19:07:26;100310.00;;;20.30;38.75
73692;BME280;61996;49.910;35.562;2023-05-02T19:10:29;100310.00;;;20.30;38.69
73692;BME280;61996;49.910;35.562;2023-05-02T19:13:32;100306.41;;;20.31;38.72
73692;BME280;61996;49.910;35.562;2023-05-02T19:16:36;100307.28;;;20.41;38.87
73692;BME280;61996;49.910;35.562;2023-05-02T19:19:41;100308.31;;;20.29;38.80
73692;BME280;61996;49.910;35.562;2023-05-02T19:22:47;100311.00;;;20.29;38.93
73692;BME280;61996;49.910;35.562;2023-05-02T19:25:50;100307.34;;;20.30;38.66
73692;BME280;61996;49.910;35.562;2023-05-02T19:28:53;100303.41;;;20.24;38.89
73692;BME280;61996;49.910;35.562;2023-05-02T19:31:56;100299.59;;;20.26;38.89
73692;BME280;61996;49.910;35.562;2023-05-02T19:35:00;100302.53;;;20.23;38.69
73692;BME280;61996;49.910;35.562;2023-05-02T19:38:05;100307.88;;;20.23;38.84
73692;BME280;61996;49.910;35.562;2023-05-02T19:41:07;100305.09;;;20.25;38.72
73692;BME280;61996;49.910;35.562;2023-05-02T19:44:10;100311.28;;;20.25;38.70
73692;BME280;61996;49.910;35.562;2023-05-02T19:47:13;100305.19;;;20.23;38.33
73692;BME280;61996;49.910;35.562;2023-05-02T19:50:17;100300.00;;;20.22;38.52
73692;BME280;61996;49.910;35.562;2023-05-02T19:53:20;100300.31;;;20.29;38.50
73692;BME280;61996;49.910;35.562;2023-05-02T19:56:23;100300.06;;;20.32;38.62
73692;BME280;61996;49.910;35.562;2023-05-02T19:59:27;100300.97;;;20.21;38.65
73692;BME280;61996;49.910;35.562;2023-05-02T20:02:30;100297.47;;;20.20;38.66
73692;BME280;61996;49.910;35.562;2023-05-02T20:05:35;100286.78;;;20.20;38.68
73692;BME280;61996;49.910;35.562;2023-05-02T20:08:38;100288.47;;;20.21;38.72
73692;BME280;61996;49.910;35.562;2023-05-02T20:11:41;100279.47;;;20.22;38.71
73692;BME280;61996;49.910;35.562;2023-05-02T20:14:44;100291.59;;;20.26;38.58
73692;BME280;61996;49.910;35.562;2023-05-02T20:17:46;100292.97;;;20.21;38.96
73692;BME280;61996;49.910;35.562;2023-05-02T20:20:51;100285.34;;;20.16;38.89
73692;BME280;61996;49.910;35.562;2023-05-02T20:23:53;100284.63;;;20.14;39.08
73692;BME280;61996;49.910;35.562;2023-05-02T20:26:56;100287.06;;;20.17;39.16
73692;BME280;61996;49.910;35.562;2023-05-02T20:29:59;100292.25;;;20.19;38.98
73692;BME280;61996;49.910;35.562;2023-05-02T20:33:02;100288.00;;;20.16;39.08
73692;BME280;61996;49.910;35.562;2023-05-02T20:36:18;100294.34;;;20.15;38.90
73692;BME280;61996;49.910;35.562;2023-05-02T20:39:21;100290.44;;;20.19;38.97
73692;BME280;61996;49.910;35.562;2023-05-02T20:42:24;100289.00;;;20.15;38.92
73692;BME280;61996;49.910;35.562;2023-05-02T20:45:27;100297.75;;;20.17;38.69
73692;BME280;61996;49.910;35.562;2023-05-02T20:48:30;100295.06;;;20.17;38.76
73692;BME280;61996;49.910;35.562;2023-05-02T20:51:35;100291.56;;;20.17;38.71
73692;BME280;61996;49.910;35.562;2023-05-02T20:54:38;100296.28;;;20.13;38.75
73692;BME280;61996;49.910;35.562;2023-05-02T20:57:41;100286.59;;;20.12;39.01
73692;BME280;61996;49.910;35.562;2023-05-02T21:00:46;100288.56;;;20.10;38.83
73692;BME280;61996;49.910;35.562;2023-05-02T21:03:53;100295.72;;;20.10;38.97
73692;BME280;61996;49.910;35.562;2023-05-02T21:06:59;100288.28;;;20.13;38.72
73692;BME280;61996;49.910;35.562;2023-05-02T21:10:02;100288.28;;;20.13;39.07
73692;BME280;61996;49.910;35.562;2023-05-02T21:13:05;100283.31;;;20.09;38.91
73692;BME280;61996;49.910;35.562;2023-05-02T21:16:12;100286.59;;;20.12;38.81
73692;BME280;61996;49.910;35.562;2023-05-02T21:19:15;100278.97;;;20.08;38.75
73692;BME280;61996;49.910;35.562;2023-05-02T21:22:19;100277.41;;;20.05;38.83
73692;BME280;61996;49.910;35.562;2023-05-02T21:25:22;100282.47;;;20.08;38.76
73692;BME280;61996;49.910;35.562;2023-05-02T21:28:25;100275.59;;;20.06;38.79
73692;BME280;61996;49.910;35.562;2023-05-02T21:31:27;100279.09;;;20.06;38.93
73692;BME280;61996;49.910;35.562;2023-05-02T21:34:30;100279.69;;;20.10;38.82
73692;BME280;61996;49.910;35.562;2023-05-02T21:37:34;100272.22;;;20.04;38.72
73692;BME280;61996;49.910;35.562;2023-05-02T21:40:37;100272.22;;;20.04;38.86
73692;BME280;61996;49.910;35.562;2023-05-02T21:43:40;100279.63;;;20.00;38.88
73692;BME280;61996;49.910;35.562;2023-05-02T21:46:44;100279.25;;;20.05;38.65
73692;BME280;61996;49.910;35.562;2023-05-02T21:49:47;100268.69;;;20.03;38.80
73692;BME280;61996;49.910;35.562;2023-05-02T21:52:51;100272.47;;;20.01;38.78
73692;BME280;61996;49.910;35.562;2023-05-02T21:55:54;100280.34;;;20.02;38.70
73692;BME280;61996;49.910;35.562;2023-05-02T21:58:57;100271.47;;;20.02;38.89
73692;BME280;61996;49.910;35.562;2023-05-02T22:01:59;100272.72;;;19.97;38.86
73692;BME280;61996;49.910;35.562;2023-05-02T22:05:03;100278.41;;;20.04;38.62
73692;BME280;61996;49.910;35.562;2023-05-02T22:08:08;100282.06;;;20.03;38.69
73692;BME280;61996;49.910;35.562;2023-05-02T22:11:11;100283.28;;;19.99;38.59
73692;BME280;61996;49.910;35.562;2023-05-02T22:14:15;100282.25;;;20.11;38.57
73692;BME280;61996;49.910;35.562;2023-05-02T22:17:18;100287.81;;;20.08;38.83
73692;BME280;61996;49.910;35.562;2023-05-02T22:20:23;100279.09;;;20.06;39.05
73692;BME280;61996;49.910;35.562;2023-05-02T22:23:29;100282.75;;;20.05;38.87
73692;BME280;61996;49.910;35.562;2023-05-02T22:26:32;100288.09;;;20.05;38.85
73692;BME280;61996;49.910;35.562;2023-05-02T22:29:36;100291.84;;;20.03;38.81
73692;BME280;61996;49.910;35.562;2023-05-02T22:32:39;100290.75;;;20.05;38.72
73692;BME280;61996;49.910;35.562;2023-05-02T22:35:42;100293.28;;;20.07;38.58
73692;BME280;61996;49.910;35.562;2023-05-02T22:38:47;100288.34;;;20.02;38.66
73692;BME280;61996;49.910;35.562;2023-05-02T22:41:50;100292.59;;;20.05;38.91
73692;BME280;61996;49.910;35.562;2023-05-02T22:44:54;100297.94;;;20.05;38.73
73692;BME280;61996;49.910;35.562;2023-05-02T22:47:58;100299.75;;;20.04;38.73
73692;BME280;61996;49.910;35.562;2023-05-02T22:51:01;100290.56;;;19.97;38.68
73692;BME280;61996;49.910;35.562;2023-05-02T22:54:06;100295.19;;;19.95;38.52
73692;BME280;61996;49.910;35.562;2023-05-02T22:57:11;100293.56;;;20.04;38.62
73692;BME280;61996;49.910;35.562;2023-05-02T23:00:14;100287.50;;;20.02;38.77
73692;BME280;61996;49.910;35.562;2023-05-02T23:03:18;100299.28;;;19.99;38.72